Time;durP1;ratioP1;P1;durP2;ratioP2;P2;SDS_P1;SDS_P2;PMS_P1;PMS_P2;Temp;Humidity;BMP_temperature;BMP_pressure;BME280_temperature;BME280_humidity;BME280_pressure;Samples;Min_cycle;Max_cycle;Signal;HPM_P1;HPM_P2
2023/08/06 00:00:05;;;;;;;;;;;;;;;;;;4946373;28;20009;-74
2023/08/06 00:02:51;;;;;;;;;;;;;;;;;;4937448;28;19924;-75
2023/08/06 00:05:38;;;;;;;;;;;;;;;;;;4937048;28;19934;-75
2023/08/06 00:08:24;;;;;;;;;;;;;;;;;;4947438;28;20277;-74
2023/08/06 00:11:10;;;;;;;;;;;;;;;;;;4935580;28;19926;-74
2023/08/06 00:13:57;;;;;;;;;;;;;;;;;;4940218;28;19929;-74
2023/08/06 00:16:44;;;;;;;;;;;;;;;;;;4941239;28;20393;-74
2023/08/06 00:19:30;;;;;;;;;;;;;;;;;;4936504;28;19921;-75
2023/08/06 00:22:16;;;;;;;;;;;;;;;;;;4945229;28;19938;-74
2023/08/06 00:25:03;;;;;;;;;;;;;;;;;;4940811;28;19922;-74
2023/08/06 00:27:49;;;;;;;;;;;;;;;;;;4935401;28;19937;-74
2023/08/06 00:30:36;;;;;;;;;;;;;;;;;;4934407;28;19926;-74
2023/08/06 00:33:22;;;;;;;;;;;;;;;;;;4938912;28;19918;-75
2023/08/06 00:36:09;;;;;;;;;;;;;;;;;;4944649;28;19936;-75
2023/08/06 00:38:55;;;;;;;;;;;;;;;;;;4965213;28;19968;-75
2023/08/06 00:41:42;;;;;;;;;;;;;;;;;;4953240;28;19922;-75
2023/08/06 00:44:28;;;;;;;;;;;;;;;;;;4944939;28;20011;-76
2023/08/06 00:47:15;;;;;;;;;;;;;;;;;;4958139;28;19915;-77
2023/08/06 00:50:01;;;;;;;;;;;;;;;;;;4952581;28;20294;-76
2023/08/06 00:52:48;;;;;;;;;;;;;;;;;;4964417;28;19914;-75
2023/08/06 00:55:34;;;;;;;;;;;;;;;;;;4952335;28;19924;-75
2023/08/06 00:58:21;;;;;;;;;;;;;;;;;;4961585;28;19937;-75
2023/08/06 01:01:07;;;;;;;;;;;;;;;;;;4962143;28;19926;-75
2023/08/06 01:03:54;;;;;;;;;;;;;;;;;;4963144;28;19922;-75
2023/08/06 01:06:40;;;;;;;;;;;;;;;;;;4949572;28;20577;-74
2023/08/06 01:09:27;;;;;;;;;;;;;;;;;;4947998;28;20282;-73
2023/08/06 01:12:13;;;;;;;;;;;;;;;;;;4954868;28;19919;-75
2023/08/06 01:14:59;;;;;;;;;;;;;;;;;;4954966;28;19945;-76
2023/08/06 01:17:46;;;;;;;;;;;;;;;;;;4953181;28;19918;-77
2023/08/06 01:20:33;;;;;;;;;;;;;;;;;;4962486;28;19933;-76
2023/08/06 01:23:19;;;;;;;;;;;;;;;;;;4960977;28;19942;-76
2023/08/06 01:26:05;;;;;;;;;;;;;;;;;;4948141;28;20370;-76
2023/08/06 01:28:52;;;;;;;;;;;;;;;;;;4945515;28;19925;-76
2023/08/06 01:31:38;;;;;;;;;;;;;;;;;;4936995;28;20518;-76
2023/08/06 01:34:25;;;;;;;;;;;;;;;;;;4949148;28;19922;-81
2023/08/06 01:37:11;;;;;;;;;;;;;;;;;;4961544;28;19926;-76
2023/08/06 01:39:58;;;;;;;;;;;;;;;;;;4948581;28;20686;-76
2023/08/06 01:42:44;;;;;;;;;;;;;;;;;;4957646;28;19918;-77
2023/08/06 01:45:31;;;;;;;;;;;;;;;;;;4942697;28;19929;-78
2023/08/06 01:48:17;;;;;;;;;;;;;;;;;;4939136;28;19919;-76
2023/08/06 01:51:04;;;;;;;;;;;;;;;;;;4947533;28;19921;-76
2023/08/06 01:53:50;;;;;;;;;;;;;;;;;;4940711;28;19948;-77
2023/08/06 01:56:37;;;;;;;;;;;;;;;;;;4941341;28;19940;-76
2023/08/06 01:59:23;;;;;;;;;;;;;;;;;;4969277;28;19933;-76
2023/08/06 02:02:11;;;;;;;;;;;;;;;;;;4950783;28;20002;-74
2023/08/06 02:04:58;;;;;;;;;;;;;;;;;;4960903;28;19918;-74
2023/08/06 02:07:44;;;;;;;;;;;;;;;;;;4963240;28;19918;-75
2023/08/06 02:10:31;;;;;;;;;;;;;;;;;;4954614;28;19929;-76
2023/08/06 02:13:17;;;;;;;;;;;;;;;;;;4959806;28;20406;-75
2023/08/06 02:16:04;;;;;;;;;;;;;;;;;;4955460;28;19918;-75
2023/08/06 02:18:50;;;;;;;;;;;;;;;;;;4954033;28;19948;-76
2023/08/06 02:21:37;;;;;;;;;;;;;;;;;;4948784;28;19929;-75
2023/08/06 02:24:23;;;;;;;;;;;;;;;;;;4947747;28;19928;-76
2023/08/06 02:27:10;;;;;;;;;;;;;;;;;;4947028;28;20003;-77
2023/08/06 02:29:56;;;;;;;;;;;;;;;;;;4940637;28;19938;-76
2023/08/06 02:32:43;;;;;;;;;;;;;;;;;;4949585;28;19915;-75
2023/08/06 02:35:29;;;;;;;;;;;;;;;;;;4946460;28;19927;-75
2023/08/06 02:38:16;;;;;;;;;;;;;;;;;;4944814;28;19933;-75
2023/08/06 02:41:02;;;;;;;;;;;;;;;;;;4942909;28;19930;-76
2023/08/06 02:43:48;;;;;;;;;;;;;;;;;;4942947;28;19924;-75
2023/08/06 02:46:35;;;;;;;;;;;;;;;;;;4942492;28;19925;-77
2023/08/06 02:49:21;;;;;;;;;;;;;;;;;;4947835;28;19926;-76
2023/08/06 02:52:08;;;;;;;;;;;;;;;;;;4940740;28;19923;-76
2023/08/06 02:54:54;;;;;;;;;;;;;;;;;;4946999;28;19918;-76
2023/08/06 02:57:41;;;;;;;;;;;;;;;;;;4945453;28;19918;-76
2023/08/06 03:00:27;;;;;;;;;;;;;;;;;;4937496;28;19942;-78
2023/08/06 03:03:14;;;;;;;;;;;;;;;;;;4934946;28;19915;-80
2023/08/06 03:06:00;;;;;;;;;;;;;;;;;;4944016;28;19922;-76
2023/08/06 03:08:47;;;;;;;;;;;;;;;;;;4943729;28;19919;-76
2023/08/06 03:11:33;;;;;;;;;;;;;;;;;;4946959;28;19922;-76
2023/08/06 03:14:19;;;;;;;;;;;;;;;;;;4952893;28;19922;-76
2023/08/06 03:17:06;;;;;;;;;;;;;;;;;;4944727;28;19926;-76
2023/08/06 03:19:52;;;;;;;;;;;;;;;;;;4965375;28;19928;-76
2023/08/06 03:22:39;;;;;;;;;;;;;;;;;;4938247;28;20411;-76
2023/08/06 03:25:25;;;;;;;;;;;;;;;;;;4947057;28;19918;-79
2023/08/06 03:28:12;;;;;;;;;;;;;;;;;;4951899;28;20374;-76
2023/08/06 03:30:58;;;;;;;;;;;;;;;;;;4958028;28;19929;-76
2023/08/06 03:33:45;;;;;;;;;;;;;;;;;;4964907;28;19988;-75
2023/08/06 03:36:31;;;;;;;;;;;;;;;;;;4955784;28;19923;-75
2023/08/06 03:39:18;;;;;;;;;;;;;;;;;;4957043;28;19918;-75
2023/08/06 03:42:04;;;;;;;;;;;;;;;;;;4949758;28;19937;-76
2023/08/06 03:44:51;;;;;;;;;;;;;;;;;;4959444;28;20267;-76
2023/08/06 03:47:37;;;;;;;;;;;;;;;;;;4948525;28;19919;-75
2023/08/06 03:50:24;;;;;;;;;;;;;;;;;;4953854;28;19927;-73
2023/08/06 03:53:10;;;;;;;;;;;;;;;;;;4951181;28;19918;-74
2023/08/06 03:55:59;;;;;;;;;;;;;;;;;;4959644;28;19918;-74
2023/08/06 03:58:46;;;;;;;;;;;;;;;;;;4950871;28;19940;-75
2023/08/06 04:01:32;;;;;;;;;;;;;;;;;;4963437;28;19932;-75
2023/08/06 04:04:19;;;;;;;;;;;;;;;;;;4965725;28;19918;-75
2023/08/06 04:07:05;;;;;;;;;;;;;;;;;;4957296;28;20009;-75
2023/08/06 04:09:52;;;;;;;;;;;;;;;;;;4963885;28;19922;-75
2023/08/06 04:12:39;;;;;;;;;;;;;;;;;;4963708;28;20282;-76
2023/08/06 04:15:25;;;;;;;;;;;;;;;;;;4965121;28;19918;-79
2023/08/06 04:18:12;;;;;;;;;;;;;;;;;;4971198;28;20398;-75
2023/08/06 04:20:58;;;;;;;;;;;;;;;;;;4966351;28;19936;-75
2023/08/06 04:23:45;;;;;;;;;;;;;;;;;;4970148;28;19918;-75
2023/08/06 04:26:31;;;;;;;;;;;;;;;;;;4962248;28;19928;-75
2023/08/06 04:29:18;;;;;;;;;;;;;;;;;;4955001;28;19922;-76
2023/08/06 04:32:04;;;;;;;;;;;;;;;;;;4968801;28;19929;-74
2023/08/06 04:34:51;;;;;;;;;;;;;;;;;;4960420;28;19922;-74
2023/08/06 04:37:37;;;;;;;;;;;;;;;;;;4962325;28;19914;-76
2023/08/06 04:40:23;;;;;;;;;;;;;;;;;;4963009;28;19934;-75
2023/08/06 04:43:10;;;;;;;;;;;;;;;;;;4965299;28;19922;-76
2023/08/06 04:45:56;;;;;;;;;;;;;;;;;;4960756;28;19956;-76
2023/08/06 04:48:43;;;;;;;;;;;;;;;;;;4965984;28;19925;-76
2023/08/06 04:51:29;;;;;;;;;;;;;;;;;;4964552;28;19933;-74
2023/08/06 04:54:16;;;;;;;;;;;;;;;;;;4967247;28;19923;-75
2023/08/06 04:57:02;;;;;;;;;;;;;;;;;;4966290;28;19917;-76
2023/08/06 04:59:49;;;;;;;;;;;;;;;;;;4951304;28;19941;-77
2023/08/06 05:02:37;;;;;;;;;;;;;;;;;;4947725;28;20374;-74
2023/08/06 05:05:24;;;;;;;;;;;;;;;;;;4961032;28;19926;-74
2023/08/06 05:08:10;;;;;;;;;;;;;;;;;;4966168;28;19927;-75
2023/08/06 05:10:57;;;;;;;;;;;;;;;;;;4964195;28;20290;-75
2023/08/06 05:13:43;;;;;;;;;;;;;;;;;;4957651;28;19918;-74
2023/08/06 05:16:30;;;;;;;;;;;;;;;;;;4959432;28;20408;-76
2023/08/06 05:19:16;;;;;;;;;;;;;;;;;;4966977;28;19929;-75
2023/08/06 05:22:03;;;;;;;;;;;;;;;;;;4967436;28;19929;-75
2023/08/06 05:24:49;;;;;;;;;;;;;;;;;;4964858;28;19922;-76
2023/08/06 05:27:36;;;;;;;;;;;;;;;;;;4957610;28;19937;-73
2023/08/06 05:30:22;;;;;;;;;;;;;;;;;;4964032;28;19921;-74
2023/08/06 05:33:09;;;;;;;;;;;;;;;;;;4948172;28;20370;-74
2023/08/06 05:35:55;;;;;;;;;;;;;;;;;;4946560;28;19929;-77
2023/08/06 05:38:42;;;;;;;;;;;;;;;;;;4944996;28;19919;-75
2023/08/06 05:41:28;;;;;;;;;;;;;;;;;;4944836;28;20389;-75
2023/08/06 05:44:15;;;;;;;;;;;;;;;;;;4947047;28;19934;-76
2023/08/06 05:47:01;;;;;;;;;;;;;;;;;;4945589;28;20008;-77
2023/08/06 05:49:48;;;;;;;;;;;;;;;;;;4968150;28;19937;-76
2023/08/06 05:52:34;;;;;;;;;;;;;;;;;;4963854;28;19959;-76
2023/08/06 05:55:21;;;;;;;;;;;;;;;;;;4951341;28;19923;-76
2023/08/06 05:58:07;;;;;;;;;;;;;;;;;;4948557;28;20438;-74
2023/08/06 06:00:53;;;;;;;;;;;;;;;;;;4945994;28;20497;-75
2023/08/06 06:03:40;;;;;;;;;;;;;;;;;;4944955;28;19945;-74
2023/08/06 06:06:27;;;;;;;;;;;;;;;;;;4944348;28;19922;-74
2023/08/06 06:09:13;;;;;;;;;;;;;;;;;;4947742;28;19922;-75
2023/08/06 06:12:00;;;;;;;;;;;;;;;;;;4951841;28;19932;-75
2023/08/06 06:14:46;;;;;;;;;;;;;;;;;;4949635;28;19929;-75
2023/08/06 06:17:33;;;;;;;;;;;;;;;;;;4949271;28;19918;-75
2023/08/06 06:20:19;;;;;;;;;;;;;;;;;;4949755;28;20298;-76
2023/08/06 06:23:06;;;;;;;;;;;;;;;;;;4949222;28;19918;-75
2023/08/06 06:25:52;;;;;;;;;;;;;;;;;;4948211;28;19929;-74
2023/08/06 06:28:39;;;;;;;;;;;;;;;;;;4950889;28;19928;-75
2023/08/06 06:31:25;;;;;;;;;;;;;;;;;;4956337;28;19925;-75
2023/08/06 06:34:12;;;;;;;;;;;;;;;;;;4953855;28;19923;-77
2023/08/06 06:36:58;;;;;;;;;;;;;;;;;;4958212;28;19918;-74
2023/08/06 06:39:45;;;;;;;;;;;;;;;;;;4947167;28;19915;-74
2023/08/06 06:42:31;;;;;;;;;;;;;;;;;;4942769;28;20406;-76
2023/08/06 06:45:18;;;;;;;;;;;;;;;;;;4954458;28;19923;-76
2023/08/06 06:48:04;;;;;;;;;;;;;;;;;;4948244;28;19941;-76
2023/08/06 06:50:50;;;;;;;;;;;;;;;;;;4946946;28;19914;-76
2023/08/06 06:53:37;;;;;;;;;;;;;;;;;;4942126;28;19918;-76
2023/08/06 06:56:23;;;;;;;;;;;;;;;;;;4955677;28;19926;-76
2023/08/06 06:59:10;;;;;;;;;;;;;;;;;;4945558;28;19934;-76
2023/08/06 07:01:56;;;;;;;;;;;;;;;;;;4964422;28;19934;-76
2023/08/06 07:04:43;;;;;;;;;;;;;;;;;;4966201;28;19926;-74
2023/08/06 07:07:29;;;;;;;;;;;;;;;;;;4963206;28;19927;-75
2023/08/06 07:10:16;;;;;;;;;;;;;;;;;;4964351;28;19928;-76
2023/08/06 07:13:02;;;;;;;;;;;;;;;;;;4958858;28;19929;-76
2023/08/06 07:15:49;;;;;;;;;;;;;;;;;;4937296;28;19923;-74
2023/08/06 07:18:35;;;;;;;;;;;;;;;;;;4954737;28;19914;-74
2023/08/06 07:21:22;;;;;;;;;;;;;;;;;;4963936;28;19941;-75
2023/08/06 07:24:08;;;;;;;;;;;;;;;;;;4963349;28;19929;-76
2023/08/06 07:26:55;;;;;;;;;;;;;;;;;;4966612;28;19937;-76
2023/08/06 07:29:41;;;;;;;;;;;;;;;;;;4964103;28;19933;-75
2023/08/06 07:32:28;;;;;;;;;;;;;;;;;;4963247;28;19925;-76
2023/08/06 07:35:14;;;;;;;;;;;;;;;;;;4954522;28;20374;-80
2023/08/06 07:38:01;;;;;;;;;;;;;;;;;;4965751;28;19918;-80
2023/08/06 07:40:47;;;;;;;;;;;;;;;;;;4959040;28;20381;-80
2023/08/06 07:43:35;;;;;;;;;;;;;;;;;;4962141;28;19928;-80
2023/08/06 07:46:22;;;;;;;;;;;;;;;;;;4970214;28;19928;-80
2023/08/06 07:49:08;;;;;;;;;;;;;;;;;;4951262;28;19955;-79
2023/08/06 07:51:54;;;;;;;;;;;;;;;;;;4945958;28;20679;-78
2023/08/06 07:54:41;;;;;;;;;;;;;;;;;;4970455;28;19926;-80
2023/08/06 07:57:27;;;;;;;;;;;;;;;;;;4963790;28;20279;-79
2023/08/06 08:00:14;;;;;;;;;;;;;;;;;;4956779;28;19938;-80
2023/08/06 08:03:00;;;;;;;;;;;;;;;;;;4937513;28;19937;-81
2023/08/06 08:05:47;;;;;;;;;;;;;;;;;;4946753;28;19926;-80
2023/08/06 08:08:37;;;;;;;;;;;;;;;;;;4970142;28;19922;-81
2023/08/06 08:11:24;;;;;;;;;;;;;;;;;;4976703;28;20033;-79
2023/08/06 08:14:10;;;;;;;;;;;;;;;;;;4959503;28;19922;-79
2023/08/06 08:16:57;;;;;;;;;;;;;;;;;;4969983;28;20317;-81
2023/08/06 08:19:43;;;;;;;;;;;;;;;;;;4962372;28;19918;-78
2023/08/06 08:22:30;;;;;;;;;;;;;;;;;;4958437;28;19926;-81
2023/08/06 08:25:16;;;;;;;;;;;;;;;;;;4960248;28;19922;-81
2023/08/06 08:28:02;;;;;;;;;;;;;;;;;;4950477;28;19926;-80
2023/08/06 08:30:49;;;;;;;;;;;;;;;;;;4944078;28;19925;-80
2023/08/06 08:33:35;;;;;;;;;;;;;;;;;;4946131;28;19965;-80
2023/08/06 08:36:22;;;;;;;;;;;;;;;;;;4967045;28;19922;-81
2023/08/06 08:39:08;;;;;;;;;;;;;;;;;;4953784;28;19918;-79
2023/08/06 08:41:55;;;;;;;;;;;;;;;;;;4946307;28;19936;-80
2023/08/06 08:44:41;;;;;;;;;;;;;;;;;;4963091;28;19945;-80
2023/08/06 08:47:28;;;;;;;;;;;;;;;;;;4946540;28;19919;-81
2023/08/06 08:50:15;;;;;;;;;;;;;;;;;;4954418;28;19926;-80
2023/08/06 08:53:01;;;;;;;;;;;;;;;;;;4939627;28;20367;-82
2023/08/06 08:55:48;;;;;;;;;;;;;;;;;;4948382;28;19923;-82
2023/08/06 08:58:34;;;;;;;;;;;;;;;;;;4943100;28;19918;-81
2023/08/06 09:01:21;;;;;;;;;;;;;;;;;;4964478;28;19952;-80
2023/08/06 09:04:08;;;;;;;;;;;;;;;;;;4957665;28;19953;-81
2023/08/06 09:06:54;;;;;;;;;;;;;;;;;;4942182;28;19930;-80
2023/08/06 09:09:43;;;;;;;;;;;;;;;;;;4942634;28;20234;-79
2023/08/06 09:12:29;;;;;;;;;;;;;;;;;;4957448;28;20507;-82
2023/08/06 09:15:16;;;;;;;;;;;;;;;;;;4941708;28;19929;-79
2023/08/06 09:18:02;;;;;;;;;;;;;;;;;;4938776;28;19926;-79
2023/08/06 09:20:49;;;;;;;;;;;;;;;;;;4937687;28;19930;-80
2023/08/06 09:23:35;;;;;;;;;;;;;;;;;;4937809;28;19926;-81
2023/08/06 09:26:21;;;;;;;;;;;;;;;;;;4941241;28;19939;-82
2023/08/06 09:29:08;;;;;;;;;;;;;;;;;;4966185;28;19928;-77
2023/08/06 09:31:54;;;;;;;;;;;;;;;;;;4951427;28;19926;-78
2023/08/06 09:34:41;;;;;;;;;;;;;;;;;;4946876;28;19937;-77
2023/08/06 09:37:27;;;;;;;;;;;;;;;;;;4942020;28;19930;-80
2023/08/06 09:40:14;;;;;;;;;;;;;;;;;;4971530;28;19922;-81
2023/08/06 09:43:00;;;;;;;;;;;;;;;;;;4948672;28;19926;-81
2023/08/06 09:45:47;;;;;;;;;;;;;;;;;;4964521;28;19929;-78
2023/08/06 09:48:33;;;;;;;;;;;;;;;;;;4941961;28;20367;-80
2023/08/06 09:51:20;;;;;;;;;;;;;;;;;;4943892;28;19924;-79
2023/08/06 09:54:07;;;;;;;;;;;;;;;;;;4951326;28;19923;-80
2023/08/06 09:56:53;;;;;;;;;;;;;;;;;;4959456;28;20472;-81
2023/08/06 09:59:40;;;;;;;;;;;;;;;;;;4959178;28;19930;-78
2023/08/06 10:02:26;;;;;;;;;;;;;;;;;;4963874;28;19938;-76
2023/08/06 10:05:13;;;;;;;;;;;;;;;;;;4958501;28;19937;-79
2023/08/06 10:07:59;;;;;;;;;;;;;;;;;;4969688;28;19929;-78
2023/08/06 10:10:46;;;;;;;;;;;;;;;;;;4947877;28;19923;-79
2023/08/06 10:13:32;;;;;;;;;;;;;;;;;;4952853;28;19922;-78
2023/08/06 10:16:19;;;;;;;;;;;;;;;;;;4961929;28;19922;-78
2023/08/06 10:19:05;;;;;;;;;;;;;;;;;;4945227;28;19929;-77
2023/08/06 10:21:52;;;;;;;;;;;;;;;;;;4959881;28;19930;-76
2023/08/06 10:24:38;;;;;;;;;;;;;;;;;;4952465;28;19925;-77
2023/08/06 10:27:24;;;;;;;;;;;;;;;;;;4945345;28;20625;-78
2023/08/06 10:30:11;;;;;;;;;;;;;;;;;;4940439;28;19926;-77
2023/08/06 10:33:00;;;;;;;;;;;;;;;;;;4945248;28;19919;-78
2023/08/06 10:35:50;;;;;;;;;;;;;;;;;;4966242;28;19922;-74
2023/08/06 10:38:37;;;;;;;;;;;;;;;;;;4956875;28;19922;-75
2023/08/06 10:41:24;;;;;;;;;;;;;;;;;;4946654;28;19930;-75
2023/08/06 10:44:10;;;;;;;;;;;;;;;;;;4958602;28;19933;-75
2023/08/06 10:46:57;;;;;;;;;;;;;;;;;;4948517;28;19922;-76
2023/08/06 10:49:43;;;;;;;;;;;;;;;;;;4952581;28;19933;-75
2023/08/06 10:52:30;;;;;;;;;;;;;;;;;;4944820;28;20333;-76
2023/08/06 10:55:16;;;;;;;;;;;;;;;;;;4951028;28;19922;-75
2023/08/06 10:58:03;;;;;;;;;;;;;;;;;;4949689;28;19922;-74
2023/08/06 11:00:50;;;;;;;;;;;;;;;;;;4959684;28;20543;-79
2023/08/06 11:03:36;;;;;;;;;;;;;;;;;;4946409;28;19930;-79
2023/08/06 11:06:24;;;;;;;;;;;;;;;;;;4960120;28;19933;-79
2023/08/06 11:09:11;;;;;;;;;;;;;;;;;;4970132;28;19922;-78
2023/08/06 11:11:57;;;;;;;;;;;;;;;;;;4963282;28;19918;-79
2023/08/06 11:14:44;;;;;;;;;;;;;;;;;;4960802;28;20644;-80
2023/08/06 11:17:30;;;;;;;;;;;;;;;;;;4959649;28;19929;-80
2023/08/06 11:20:17;;;;;;;;;;;;;;;;;;4959920;28;20397;-80
2023/08/06 11:23:04;;;;;;;;;;;;;;;;;;4962121;28;19926;-79
2023/08/06 11:25:51;;;;;;;;;;;;;;;;;;4963561;28;19922;-79
2023/08/06 11:28:37;;;;;;;;;;;;;;;;;;4961802;28;19922;-78
2023/08/06 11:31:24;;;;;;;;;;;;;;;;;;4960251;28;20361;-79
2023/08/06 11:34:11;;;;;;;;;;;;;;;;;;4965931;28;19919;-80
2023/08/06 11:36:58;;;;;;;;;;;;;;;;;;4954275;28;20409;-78
2023/08/06 11:39:44;;;;;;;;;;;;;;;;;;4963030;28;19918;-77
2023/08/06 11:42:31;;;;;;;;;;;;;;;;;;4960516;28;19926;-77
2023/08/06 11:45:17;;;;;;;;;;;;;;;;;;4959736;28;19926;-77
2023/08/06 11:48:05;;;;;;;;;;;;;;;;;;4953153;28;20379;-79
2023/08/06 11:50:51;;;;;;;;;;;;;;;;;;4950052;28;19926;-76
2023/08/06 11:53:38;;;;;;;;;;;;;;;;;;4955455;28;20402;-75
2023/08/06 11:56:25;;;;;;;;;;;;;;;;;;4959226;28;19918;-75
2023/08/06 11:59:11;;;;;;;;;;;;;;;;;;4958523;28;19930;-76
2023/08/06 12:01:58;;;;;;;;;;;;;;;;;;4955969;28;19918;-76
2023/08/06 12:04:44;;;;;;;;;;;;;;;;;;4953591;28;20629;-75
2023/08/06 12:07:31;;;;;;;;;;;;;;;;;;4963155;28;19918;-79
2023/08/06 12:10:19;;;;;;;;;;;;;;;;;;4956858;28;19925;-75
2023/08/06 12:13:06;;;;;;;;;;;;;;;;;;4948817;28;19922;-77
2023/08/06 12:15:53;;;;;;;;;;;;;;;;;;4942595;28;19970;-80
2023/08/06 12:18:39;;;;;;;;;;;;;;;;;;4943201;28;20673;-78
2023/08/06 12:21:26;;;;;;;;;;;;;;;;;;4945836;28;19933;-78
2023/08/06 12:24:12;;;;;;;;;;;;;;;;;;4952358;28;19933;-78
2023/08/06 12:26:59;;;;;;;;;;;;;;;;;;4956138;28;19929;-79
2023/08/06 12:29:45;;;;;;;;;;;;;;;;;;4937260;28;20398;-78
2023/08/06 12:32:32;;;;;;;;;;;;;;;;;;4936094;28;19927;-76
2023/08/06 12:35:19;;;;;;;;;;;;;;;;;;4945069;28;20387;-76
2023/08/06 12:38:06;;;;;;;;;;;;;;;;;;4935132;28;19922;-78
2023/08/06 12:40:52;;;;;;;;;;;;;;;;;;4942524;28;20315;-78
2023/08/06 12:43:39;;;;;;;;;;;;;;;;;;4952074;28;19953;-75
2023/08/06 12:46:25;;;;;;;;;;;;;;;;;;4950491;28;19923;-75
2023/08/06 12:49:12;;;;;;;;;;;;;;;;;;4949856;28;19927;-74
2023/08/06 12:52:02;;;;;;;;;;;;;;;;;;4948786;28;19918;-75
2023/08/06 12:54:48;;;;;;;;;;;;;;;;;;4926142;28;19963;-76
2023/08/06 12:57:35;;;;;;;;;;;;;;;;;;4946731;28;20395;-76
2023/08/06 13:00:21;;;;;;;;;;;;;;;;;;4955891;28;19942;-76
2023/08/06 13:03:07;;;;;;;;;;;;;;;;;;4950808;28;19933;-77
2023/08/06 13:05:54;;;;;;;;;;;;;;;;;;4965102;28;20444;-75
2023/08/06 13:08:40;;;;;;;;;;;;;;;;;;4965258;28;19918;-77
2023/08/06 13:11:27;;;;;;;;;;;;;;;;;;4962625;28;19918;-76
2023/08/06 13:14:13;;;;;;;;;;;;;;;;;;4959995;28;20429;-76
2023/08/06 13:17:00;;;;;;;;;;;;;;;;;;4951908;28;19915;-76
2023/08/06 13:19:46;;;;;;;;;;;;;;;;;;4960216;28;20319;-77
2023/08/06 13:22:33;;;;;;;;;;;;;;;;;;4957246;28;19930;-76
2023/08/06 13:25:19;;;;;;;;;;;;;;;;;;4947643;28;19929;-77
2023/08/06 13:28:06;;;;;;;;;;;;;;;;;;4941965;28;19934;-76
2023/08/06 13:30:52;;;;;;;;;;;;;;;;;;4952022;28;19922;-76
2023/08/06 13:33:39;;;;;;;;;;;;;;;;;;4952338;28;19919;-76
2023/08/06 13:36:25;;;;;;;;;;;;;;;;;;4947235;28;19927;-76
2023/08/06 13:39:12;;;;;;;;;;;;;;;;;;4955137;28;19937;-78
2023/08/06 13:41:58;;;;;;;;;;;;;;;;;;4950072;28;20412;-78
2023/08/06 13:44:45;;;;;;;;;;;;;;;;;;4946464;28;19922;-77
2023/08/06 13:47:31;;;;;;;;;;;;;;;;;;4938079;28;19929;-78
2023/08/06 13:50:19;;;;;;;;;;;;;;;;;;4941172;28;19926;-79
2023/08/06 13:53:05;;;;;;;;;;;;;;;;;;4956237;28;19933;-78
2023/08/06 13:55:51;;;;;;;;;;;;;;;;;;4944105;28;20399;-78
2023/08/06 13:58:38;;;;;;;;;;;;;;;;;;4952868;28;19953;-77
2023/08/06 14:01:24;;;;;;;;;;;;;;;;;;4969583;28;19936;-74
2023/08/06 14:04:11;;;;;;;;;;;;;;;;;;4960066;28;19922;-74
2023/08/06 14:06:57;;;;;;;;;;;;;;;;;;4960599;28;20389;-74
2023/08/06 14:09:44;;;;;;;;;;;;;;;;;;4949698;28;19933;-74
2023/08/06 14:12:30;;;;;;;;;;;;;;;;;;4950363;28;19927;-73
2023/08/06 14:15:17;;;;;;;;;;;;;;;;;;4966777;28;19922;-75
2023/08/06 14:18:03;;;;;;;;;;;;;;;;;;4965756;28;19921;-75
2023/08/06 14:20:50;;;;;;;;;;;;;;;;;;4962748;28;19929;-75
2023/08/06 14:23:36;;;;;;;;;;;;;;;;;;4963142;28;20915;-74
2023/08/06 14:26:23;;;;;;;;;;;;;;;;;;4955860;28;19933;-73
2023/08/06 14:29:09;;;;;;;;;;;;;;;;;;4965978;28;19922;-74
2023/08/06 14:31:56;;;;;;;;;;;;;;;;;;4972557;28;19922;-73
2023/08/06 14:34:42;;;;;;;;;;;;;;;;;;4965208;28;19922;-73
2023/08/06 14:37:29;;;;;;;;;;;;;;;;;;4967813;28;19922;-74
2023/08/06 14:40:15;;;;;;;;;;;;;;;;;;4958188;28;19918;-74
2023/08/06 14:43:02;;;;;;;;;;;;;;;;;;4958548;28;19937;-74
2023/08/06 14:45:48;;;;;;;;;;;;;;;;;;4965036;28;19953;-73
2023/08/06 14:48:35;;;;;;;;;;;;;;;;;;4980431;28;19926;-73
2023/08/06 14:51:22;;;;;;;;;;;;;;;;;;4965798;28;20497;-73
2023/08/06 14:54:08;;;;;;;;;;;;;;;;;;4957830;28;19929;-75
2023/08/06 14:56:55;;;;;;;;;;;;;;;;;;4973529;28;19944;-74
2023/08/06 14:59:41;;;;;;;;;;;;;;;;;;4964231;28;20306;-75
2023/08/06 15:02:28;;;;;;;;;;;;;;;;;;4962115;28;19930;-75
2023/08/06 15:05:15;;;;;;;;;;;;;;;;;;4967858;28;20389;-74
2023/08/06 15:08:01;;;;;;;;;;;;;;;;;;4943206;28;20405;-74
2023/08/06 15:10:48;;;;;;;;;;;;;;;;;;4955206;28;20310;-74
2023/08/06 15:13:34;;;;;;;;;;;;;;;;;;4940463;28;20362;-74
2023/08/06 15:16:21;;;;;;;;;;;;;;;;;;4952598;28;19924;-74
2023/08/06 15:19:07;;;;;;;;;;;;;;;;;;4954883;28;19926;-75
2023/08/06 15:21:54;;;;;;;;;;;;;;;;;;4965707;28;19934;-74
2023/08/06 15:24:42;;;;;;;;;;;;;;;;;;4965288;28;19926;-74
2023/08/06 15:27:28;;;;;;;;;;;;;;;;;;4965449;28;19922;-75
2023/08/06 15:30:15;;;;;;;;;;;;;;;;;;4969035;28;19921;-74
2023/08/06 15:33:02;;;;;;;;;;;;;;;;;;4950674;28;19923;-74
2023/08/06 15:35:48;;;;;;;;;;;;;;;;;;4959544;28;19950;-73
2023/08/06 15:38:35;;;;;;;;;;;;;;;;;;4970225;28;19929;-76
2023/08/06 15:41:21;;;;;;;;;;;;;;;;;;4957801;28;19929;-74
2023/08/06 15:44:08;;;;;;;;;;;;;;;;;;4961478;28;19930;-76
2023/08/06 15:46:54;;;;;;;;;;;;;;;;;;4959003;28;20508;-75
2023/08/06 15:49:40;;;;;;;;;;;;;;;;;;4966064;28;19928;-75
2023/08/06 15:52:27;;;;;;;;;;;;;;;;;;4965623;28;19929;-73
2023/08/06 15:55:13;;;;;;;;;;;;;;;;;;4943689;28;19923;-74
2023/08/06 15:58:00;;;;;;;;;;;;;;;;;;4940378;28;19932;-75
2023/08/06 16:00:46;;;;;;;;;;;;;;;;;;4951776;28;20382;-75
2023/08/06 16:03:33;;;;;;;;;;;;;;;;;;4941392;28;19945;-76
2023/08/06 16:06:19;;;;;;;;;;;;;;;;;;4949355;28;19925;-74
2023/08/06 16:09:07;;;;;;;;;;;;;;;;;;4963811;28;19952;-74
2023/08/06 16:11:54;;;;;;;;;;;;;;;;;;4936553;28;19918;-73
2023/08/06 16:14:41;;;;;;;;;;;;;;;;;;4935896;28;19919;-74
2023/08/06 16:17:28;;;;;;;;;;;;;;;;;;4939628;28;19922;-76
2023/08/06 16:20:14;;;;;;;;;;;;;;;;;;4944909;28;20271;-75
2023/08/06 16:23:01;;;;;;;;;;;;;;;;;;4944101;28;19937;-74
2023/08/06 16:25:47;;;;;;;;;;;;;;;;;;4943512;28;19928;-75
2023/08/06 16:28:34;;;;;;;;;;;;;;;;;;4955816;28;20474;-74
2023/08/06 16:31:21;;;;;;;;;;;;;;;;;;4963009;28;19929;-77
2023/08/06 16:34:07;;;;;;;;;;;;;;;;;;4952283;28;19923;-75
2023/08/06 16:36:54;;;;;;;;;;;;;;;;;;4946211;28;19929;-77
2023/08/06 16:39:40;;;;;;;;;;;;;;;;;;4949906;28;19919;-76
2023/08/06 16:42:26;;;;;;;;;;;;;;;;;;4944369;28;19942;-77
2023/08/06 16:45:13;;;;;;;;;;;;;;;;;;4940107;28;19925;-77
2023/08/06 16:47:59;;;;;;;;;;;;;;;;;;4942547;28;19923;-77
2023/08/06 16:50:46;;;;;;;;;;;;;;;;;;4942212;28;19929;-77
2023/08/06 16:53:32;;;;;;;;;;;;;;;;;;4946632;28;19934;-77
2023/08/06 16:56:19;;;;;;;;;;;;;;;;;;4941881;28;19929;-78
2023/08/06 16:59:05;;;;;;;;;;;;;;;;;;4949871;28;19934;-78
2023/08/06 17:01:52;;;;;;;;;;;;;;;;;;4957861;28;19918;-80
2023/08/06 17:04:38;;;;;;;;;;;;;;;;;;4948776;28;19923;-77
2023/08/06 17:07:25;;;;;;;;;;;;;;;;;;4943260;28;19919;-77
2023/08/06 17:10:11;;;;;;;;;;;;;;;;;;4942194;28;19926;-77
2023/08/06 17:12:58;;;;;;;;;;;;;;;;;;4949294;28;19928;-77
2023/08/06 17:15:46;;;;;;;;;;;;;;;;;;4944571;28;19927;-77
2023/08/06 17:18:32;;;;;;;;;;;;;;;;;;4936668;28;19922;-76
2023/08/06 17:21:18;;;;;;;;;;;;;;;;;;4958405;28;20421;-77
2023/08/06 17:24:05;;;;;;;;;;;;;;;;;;4943965;28;19930;-79
2023/08/06 17:26:58;;;;;;;;;;;;;;;;;;4964481;28;19918;-77
2023/08/06 17:29:45;;;;;;;;;;;;;;;;;;4959179;28;19922;-76
2023/08/06 17:32:31;;;;;;;;;;;;;;;;;;4954219;28;19983;-78
2023/08/06 17:35:18;;;;;;;;;;;;;;;;;;4949972;28;19925;-79
2023/08/06 17:38:04;;;;;;;;;;;;;;;;;;4950932;28;19930;-76
2023/08/06 17:40:52;;;;;;;;;;;;;;;;;;4954290;28;19923;-76
2023/08/06 17:43:39;;;;;;;;;;;;;;;;;;4963166;28;19934;-77
2023/08/06 17:46:25;;;;;;;;;;;;;;;;;;4969464;28;20409;-75
2023/08/06 17:49:12;;;;;;;;;;;;;;;;;;4970401;28;19926;-75
2023/08/06 17:51:58;;;;;;;;;;;;;;;;;;4963691;28;19919;-80
2023/08/06 17:54:44;;;;;;;;;;;;;;;;;;4958883;28;19929;-74
2023/08/06 17:57:31;;;;;;;;;;;;;;;;;;4964516;28;20382;-72
2023/08/06 18:00:17;;;;;;;;;;;;;;;;;;4963724;28;19937;-74
2023/08/06 18:03:04;;;;;;;;;;;;;;;;;;4951790;28;19953;-74
2023/08/06 18:05:50;;;;;;;;;;;;;;;;;;4941310;28;19922;-74
2023/08/06 18:08:37;;;;;;;;;;;;;;;;;;4956653;28;19922;-76
2023/08/06 18:11:23;;;;;;;;;;;;;;;;;;4950535;28;19941;-75
2023/08/06 18:14:10;;;;;;;;;;;;;;;;;;4937197;28;19923;-75
2023/08/06 18:16:56;;;;;;;;;;;;;;;;;;4957300;28;19925;-75
2023/08/06 18:19:43;;;;;;;;;;;;;;;;;;4951327;28;20674;-74
2023/08/06 18:22:29;;;;;;;;;;;;;;;;;;4939207;28;19941;-73
2023/08/06 18:25:16;;;;;;;;;;;;;;;;;;4946287;28;19976;-74
2023/08/06 18:28:02;;;;;;;;;;;;;;;;;;4959037;28;19926;-74
2023/08/06 18:30:49;;;;;;;;;;;;;;;;;;4958555;28;20263;-75
2023/08/06 18:33:35;;;;;;;;;;;;;;;;;;4964295;28;19926;-75
2023/08/06 18:36:22;;;;;;;;;;;;;;;;;;4962496;28;19918;-74
2023/08/06 18:39:08;;;;;;;;;;;;;;;;;;4959304;28;19925;-75
2023/08/06 18:41:55;;;;;;;;;;;;;;;;;;4959308;28;19919;-75
2023/08/06 18:44:41;;;;;;;;;;;;;;;;;;4963198;28;19994;-75
2023/08/06 18:47:28;;;;;;;;;;;;;;;;;;4963654;28;19961;-78
2023/08/06 18:50:14;;;;;;;;;;;;;;;;;;4964760;28;20393;-75
2023/08/06 18:53:02;;;;;;;;;;;;;;;;;;4944461;28;19934;-74
2023/08/06 18:55:49;;;;;;;;;;;;;;;;;;4943598;28;19926;-75